createdAt,value
2018-08-22T00:01:48.563Z,73.85
2018-08-22T00:04:17.504Z,74.06
2018-08-22T00:06:46.406Z,74.98
2018-08-22T00:09:15.545Z,75.27
2018-08-22T00:11:44.516Z,75.02
2018-08-22T00:14:13.374Z,74.92
2018-08-22T00:16:43.289Z,75.74
2018-08-22T00:19:12.204Z,75.54
2018-08-22T00:21:41.093Z,75.40
2018-08-22T00:24:09.981Z,75.20
2018-08-22T00:26:38.867Z,75.31
2018-08-22T00:29:07.831Z,75.35
2018-08-22T00:31:36.652Z,75.65
2018-08-22T00:34:05.600Z,75.46
2018-08-22T00:36:34.464Z,75.02
2018-08-22T00:39:03.785Z,74.36
2018-08-22T00:41:32.746Z,75.21
2018-08-22T00:44:01.594Z,75.70
2018-08-22T00:46:30.492Z,75.05
2018-08-22T00:48:59.411Z,75.29
2018-08-22T00:51:28.342Z,75.26
2018-08-22T00:53:57.298Z,75.45
2018-08-22T00:56:26.182Z,75.13
2018-08-22T00:58:55.091Z,75.20
2018-08-22T01:01:24.060Z,75.87
2018-08-22T01:03:52.946Z,75.84
2018-08-22T01:06:22.869Z,75.73
2018-08-22T01:08:51.762Z,76.07
2018-08-22T01:11:20.760Z,76.42
2018-08-22T01:13:49.662Z,76.20
2018-08-22T01:16:18.544Z,76.27
2018-08-22T01:18:47.441Z,76.29
2018-08-22T01:21:16.292Z,76.43
2018-08-22T01:23:45.199Z,75.91
2018-08-22T01:26:14.092Z,75.50
2018-08-22T01:28:44.039Z,76.60
2018-08-22T01:31:12.946Z,75.80
2018-08-22T01:33:41.927Z,75.55
2018-08-22T01:36:10.781Z,75.69
2018-08-22T01:38:39.688Z,76.28
2018-08-22T01:41:08.784Z,75.27
2018-08-22T01:43:37.710Z,75.11
2018-08-22T01:46:06.646Z,75.35
2018-08-22T01:48:35.559Z,75.36
2018-08-22T01:51:04.448Z,75.16
2018-08-22T01:53:33.487Z,75.77
2018-08-22T01:56:02.437Z,75.24
2018-08-22T01:58:31.341Z,75.42
2018-08-22T02:01:00.263Z,75.80
2018-08-22T02:03:29.212Z,76.12
2018-08-22T02:05:58.177Z,76.83
2018-08-22T02:08:27.035Z,76.04
2018-08-22T02:10:55.914Z,75.82
2018-08-22T02:13:25.009Z,75.33
2018-08-22T02:15:53.934Z,75.21
2018-08-22T02:18:22.821Z,75.39
2018-08-22T02:20:51.739Z,75.70
2018-08-22T02:23:20.632Z,75.73
2018-08-22T02:25:49.537Z,76.01
2018-08-22T02:28:18.413Z,76.11
2018-08-22T02:30:47.363Z,76.10
2018-08-22T02:33:16.255Z,76.50
2018-08-22T02:35:45.138Z,77.06
2018-08-22T02:38:18.175Z,76.63
2018-08-22T02:40:47.069Z,77.16
2018-08-22T02:43:16.060Z,77.40
2018-08-22T02:45:45.012Z,76.95
2018-08-22T02:48:13.915Z,77.29
2018-08-22T02:50:42.811Z,77.21
2018-08-22T02:53:11.708Z,77.29
2018-08-22T02:55:40.968Z,77.44
2018-08-22T02:58:09.876Z,77.47
2018-08-22T03:00:38.790Z,77.47
2018-08-22T03:03:07.650Z,77.98
2018-08-22T03:05:36.537Z,78.12
2018-08-22T03:08:05.551Z,78.95
2018-08-22T03:10:34.517Z,78.21
2018-08-22T03:13:03.397Z,78.46
2018-08-22T03:15:32.325Z,78.35
2018-08-22T03:18:01.223Z,78.13
2018-08-22T03:20:30.161Z,78.56
2018-08-22T03:22:59.035Z,79.10
2018-08-22T03:25:28.013Z,78.60
2018-08-22T03:27:56.906Z,78.58
2018-08-22T03:30:26.839Z,78.53
2018-08-22T03:32:55.725Z,78.88
2018-08-22T03:35:24.611Z,78.50
2018-08-22T03:37:53.493Z,79.51
2018-08-22T03:40:22.365Z,79.58
2018-08-22T03:42:51.308Z,79.60
2018-08-22T03:45:20.283Z,79.92
2018-08-22T03:47:49.222Z,80.17
2018-08-22T03:50:18.189Z,79.79
2018-08-22T03:52:47.145Z,79.59
2018-08-22T03:55:16.077Z,78.97
2018-08-22T03:57:45.026Z,79.68
2018-08-22T04:00:13.938Z,79.46
2018-08-22T04:02:42.916Z,79.87
2018-08-22T04:05:12.855Z,80.45
2018-08-22T04:07:41.752Z,80.46
2018-08-22T04:10:10.695Z,80.35
2018-08-22T04:12:39.627Z,80.33
2018-08-22T04:15:09.556Z,80.72
2018-08-22T04:17:40.467Z,81.04
2018-08-22T04:20:09.861Z,80.80
2018-08-22T04:22:39.920Z,80.88
2018-08-22T04:25:09.352Z,81.32
2018-08-22T04:27:38.268Z,80.71
2018-08-22T04:30:07.501Z,80.99
2018-08-22T04:32:36.497Z,80.77
2018-08-22T04:35:05.525Z,81.30
2018-08-22T04:37:34.418Z,81.57
2018-08-22T04:40:03.347Z,81.79
2018-08-22T04:42:32.233Z,81.89
2018-08-22T04:45:01.105Z,82.01
2018-08-22T04:47:30.013Z,82.09
2018-08-22T04:49:58.855Z,81.92
2018-08-22T04:52:27.839Z,81.90
2018-08-22T04:54:56.828Z,81.92
2018-08-22T04:57:25.809Z,81.64
2018-08-22T04:59:54.782Z,81.69
2018-08-22T05:02:24.733Z,81.54
2018-08-22T05:04:53.783Z,82.00
2018-08-22T05:07:22.741Z,81.94
2018-08-22T05:09:51.649Z,82.22
2018-08-22T05:12:20.557Z,82.35
2018-08-22T05:14:50.263Z,82.25
2018-08-22T05:17:19.184Z,82.41
2018-08-22T05:19:48.133Z,82.11
2018-08-22T05:22:17.044Z,81.92
2018-08-22T05:24:46.007Z,82.42
2018-08-22T05:27:15.870Z,81.98
2018-08-22T05:29:44.774Z,82.28
2018-08-22T05:32:13.630Z,81.85
2018-08-22T05:34:42.561Z,81.77
2018-08-22T05:37:11.472Z,82.02
2018-08-22T05:39:40.408Z,82.13
2018-08-22T05:42:09.363Z,82.02
2018-08-22T05:44:38.240Z,82.06
2018-08-22T05:47:07.153Z,82.24
2018-08-22T05:49:36.020Z,81.97
2018-08-22T05:52:04.929Z,82.16
2018-08-22T05:54:33.841Z,83.05
2018-08-22T05:57:02.765Z,82.54
2018-08-22T05:59:31.652Z,82.36
2018-08-22T06:02:00.624Z,81.97
2018-08-22T06:04:29.486Z,81.82
2018-08-22T06:06:58.457Z,81.92
2018-08-22T06:09:27.492Z,82.17
2018-08-22T06:11:56.386Z,82.44
2018-08-22T06:14:25.279Z,82.14
2018-08-22T06:16:54.151Z,81.94
2018-08-22T06:19:23.129Z,82.39
2018-08-22T06:21:51.971Z,81.76
2018-08-22T06:24:20.884Z,81.04
2018-08-22T06:26:49.887Z,81.05
2018-08-22T06:29:18.775Z,80.67
2018-08-22T06:31:47.821Z,81.11
2018-08-22T06:34:16.749Z,80.61
2018-08-22T06:36:45.627Z,80.98
2018-08-22T06:39:14.494Z,81.20
2018-08-22T06:41:43.394Z,80.97
2018-08-22T06:44:12.278Z,80.78
2018-08-22T06:46:41.179Z,79.81
2018-08-22T06:49:10.050Z,78.81
2018-08-22T06:51:38.951Z,78.04
2018-08-22T06:54:08.016Z,76.67
2018-08-22T06:56:36.907Z,75.05
2018-08-22T06:59:05.795Z,74.33
2018-08-22T07:01:34.701Z,75.52
2018-08-22T07:04:03.807Z,73.91
2018-08-22T07:06:33.056Z,73.49
2018-08-22T07:09:01.937Z,73.53
2018-08-22T07:11:30.826Z,72.69
2018-08-22T07:13:59.786Z,71.98
2018-08-22T07:16:28.763Z,71.41
2018-08-22T07:18:57.670Z,70.26
2018-08-22T07:21:26.553Z,69.68
2018-08-22T07:23:55.461Z,69.66
2018-08-22T07:26:24.351Z,69.86
2018-08-22T07:28:53.237Z,70.16
2018-08-22T07:31:22.192Z,69.67
2018-08-22T07:33:51.195Z,69.85
2018-08-22T07:36:20.089Z,68.72
2018-08-22T07:38:49.043Z,68.19
2018-08-22T07:41:17.937Z,68.54
2018-08-22T07:43:46.872Z,68.26
2018-08-22T07:46:15.869Z,68.26
2018-08-22T07:48:44.791Z,68.21
2018-08-22T07:51:13.693Z,67.96
2018-08-22T07:53:42.599Z,68.31
2018-08-22T07:56:11.481Z,67.61
2018-08-22T07:58:40.381Z,68.30
2018-08-22T08:01:09.324Z,67.56
2018-08-22T08:03:38.228Z,67.92
2018-08-22T08:06:07.121Z,67.85
2018-08-22T08:08:36.063Z,67.37
2018-08-22T08:11:05.118Z,67.21
2018-08-22T08:13:33.969Z,67.03
2018-08-22T08:16:02.867Z,67.12
2018-08-22T08:18:31.911Z,66.46
2018-08-22T08:21:01.841Z,66.59
2018-08-22T08:23:30.913Z,66.98
2018-08-22T08:25:59.829Z,67.04
2018-08-22T08:28:28.917Z,67.05
2018-08-22T08:30:57.806Z,66.89
2018-08-22T08:33:26.805Z,66.40
2018-08-22T08:35:55.775Z,66.03
2018-08-22T08:38:24.728Z,65.99
2018-08-22T08:40:53.561Z,65.74
2018-08-22T08:43:22.508Z,65.19
2018-08-22T08:45:51.437Z,65.02
2018-08-22T08:48:20.323Z,64.96
2018-08-22T08:50:49.218Z,64.92
2018-08-22T08:53:18.170Z,64.93
2018-08-22T08:55:47.113Z,64.58
2018-08-22T08:58:16.019Z,63.87
2018-08-22T09:00:44.926Z,62.91
2018-08-22T09:03:13.852Z,63.73
2018-08-22T09:05:42.783Z,63.47
2018-08-22T09:08:11.658Z,63.12
2018-08-22T09:10:40.545Z,62.20
2018-08-22T09:13:10.795Z,62.29
2018-08-22T09:15:39.846Z,62.08
2018-08-22T09:18:08.717Z,61.91
2018-08-22T09:20:37.683Z,61.48
2018-08-22T09:23:06.693Z,61.82
2018-08-22T09:25:35.591Z,60.96
2018-08-22T09:28:04.605Z,60.92
2018-08-22T09:30:33.536Z,60.08
2018-08-22T09:33:02.448Z,59.59
2018-08-22T09:35:31.379Z,59.55
2018-08-22T09:38:00.307Z,59.94
2018-08-22T09:40:30.324Z,59.81
2018-08-22T09:42:59.246Z,59.95
2018-08-22T09:45:28.127Z,58.97
2018-08-22T09:47:57.030Z,59.02
2018-08-22T09:50:25.925Z,58.33
2018-08-22T09:52:54.789Z,59.63
2018-08-22T09:55:23.724Z,59.19
2018-08-22T09:57:52.658Z,59.04
2018-08-22T10:00:26.930Z,58.65
2018-08-22T10:02:55.811Z,58.31
2018-08-22T10:05:24.698Z,57.60
2018-08-22T10:07:53.654Z,57.72
2018-08-22T10:10:22.565Z,58.33
2018-08-22T10:12:51.522Z,58.27
2018-08-22T10:15:20.429Z,58.32
2018-08-22T10:17:49.352Z,58.18
2018-08-22T10:20:18.357Z,57.81
2018-08-22T10:22:47.307Z,58.21
2018-08-22T10:25:16.200Z,58.34
2018-08-22T10:27:45.102Z,58.21
2018-08-22T10:30:13.967Z,56.83
2018-08-22T10:32:42.914Z,56.32
2018-08-22T10:35:11.727Z,56.73
2018-08-22T10:37:40.673Z,55.89
2018-08-22T10:40:09.537Z,56.16
2018-08-22T10:42:38.449Z,56.47
2018-08-22T10:45:07.387Z,56.37
2018-08-22T10:47:36.281Z,55.51
2018-08-22T10:50:05.225Z,54.72
2018-08-22T10:52:34.214Z,54.55
2018-08-22T10:55:03.192Z,54.85
2018-08-22T10:57:32.091Z,54.58
2018-08-22T11:00:01.020Z,54.00
2018-08-22T11:02:29.965Z,54.55
2018-08-22T11:04:58.877Z,54.40
2018-08-22T11:07:27.777Z,52.52
2018-08-22T11:09:56.723Z,53.33
2018-08-22T11:12:25.567Z,52.63
2018-08-22T11:14:54.527Z,53.11
2018-08-22T11:17:23.425Z,52.91
2018-08-22T11:19:52.325Z,52.17
2018-08-22T11:22:32.425Z,52.50
2018-08-22T11:25:12.602Z,52.41
2018-08-22T11:27:52.692Z,51.77
2018-08-22T11:30:33.102Z,51.03
2018-08-22T11:33:13.281Z,51.17
2018-08-22T11:35:41.282Z,50.38
2018-08-22T11:38:10.959Z,50.76
2018-08-22T11:40:40.327Z,49.41
2018-08-22T11:43:09.626Z,50.31
2018-08-22T11:45:38.970Z,51.01
2018-08-22T11:48:08.328Z,49.51
2018-08-22T11:50:37.739Z,49.48
2018-08-22T11:53:07.079Z,50.37
2018-08-22T11:55:36.456Z,50.45
2018-08-22T11:58:05.800Z,50.27
2018-08-22T12:00:35.259Z,48.69
2018-08-22T12:03:04.161Z,49.33
2018-08-22T12:05:33.048Z,48.50
2018-08-22T12:08:01.955Z,48.66
2018-08-22T12:10:30.948Z,49.16
2018-08-22T12:13:01.462Z,49.48
2018-08-22T12:15:30.361Z,48.54
2018-08-22T12:17:59.451Z,48.29
2018-08-22T12:20:28.627Z,49.22
2018-08-22T12:22:57.543Z,48.24
2018-08-22T12:25:26.465Z,49.23
2018-08-22T12:27:55.328Z,49.23
2018-08-22T12:30:24.233Z,47.93
2018-08-22T12:32:53.136Z,48.39
2018-08-22T12:35:22.186Z,47.66
2018-08-22T12:37:51.110Z,48.12
2018-08-22T12:40:19.982Z,47.38
2018-08-22T12:42:48.867Z,47.31
2018-08-22T12:45:17.773Z,48.13
2018-08-22T12:47:46.813Z,46.85
2018-08-22T12:50:15.740Z,45.90
2018-08-22T12:52:44.678Z,46.00
2018-08-22T12:55:13.646Z,46.81
2018-08-22T12:57:42.650Z,46.47
2018-08-22T13:00:11.681Z,46.03
2018-08-22T13:02:40.632Z,46.84
2018-08-22T13:05:09.553Z,45.48
2018-08-22T13:07:38.464Z,45.79
2018-08-22T13:10:07.428Z,45.45
2018-08-22T13:12:36.447Z,46.06
2018-08-22T13:15:06.667Z,46.20
2018-08-22T13:17:35.624Z,45.65
2018-08-22T13:20:05.012Z,46.40
2018-08-22T13:22:33.895Z,46.93
2018-08-22T13:25:02.980Z,46.96
2018-08-22T13:27:31.893Z,46.65
2018-08-22T13:30:01.868Z,46.66
2018-08-22T13:32:30.866Z,45.64
2018-08-22T13:34:59.805Z,45.62
2018-08-22T13:37:28.784Z,46.03
2018-08-22T13:39:57.685Z,47.53
2018-08-22T13:42:26.653Z,47.42
2018-08-22T13:44:56.634Z,47.67
2018-08-22T13:47:25.547Z,47.12
2018-08-22T13:49:54.715Z,47.74
2018-08-22T13:52:24.713Z,47.10
2018-08-22T13:54:53.657Z,47.27
2018-08-22T13:57:22.595Z,46.97
2018-08-22T13:59:51.505Z,46.09
2018-08-22T14:02:20.432Z,46.31
2018-08-22T14:04:49.365Z,46.11
2018-08-22T14:07:18.287Z,45.51
2018-08-22T14:09:47.222Z,45.22
2018-08-22T14:12:16.081Z,45.30
2018-08-22T14:14:44.984Z,45.42
2018-08-22T14:17:13.901Z,45.65
2018-08-22T14:19:42.809Z,45.14
2018-08-22T14:22:11.828Z,45.51
2018-08-22T14:24:40.740Z,45.21
2018-08-22T14:27:09.669Z,45.78
2018-08-22T14:29:38.717Z,46.38
2018-08-22T14:32:07.658Z,45.39
2018-08-22T14:34:36.619Z,45.11
2018-08-22T14:37:05.768Z,45.69
2018-08-22T14:39:34.658Z,45.73
2018-08-22T14:42:03.568Z,46.70
2018-08-22T14:44:32.624Z,46.79
2018-08-22T14:47:01.510Z,46.37
2018-08-22T14:49:30.403Z,46.82
2018-08-22T14:51:59.487Z,46.68
2018-08-22T14:54:28.402Z,46.53
2018-08-22T14:56:57.402Z,46.06
2018-08-22T14:59:26.434Z,46.09
2018-08-22T15:01:55.480Z,46.14
2018-08-22T15:04:24.395Z,46.12
2018-08-22T15:06:53.411Z,47.08
2018-08-22T15:09:22.348Z,48.04
2018-08-22T15:11:52.270Z,48.30
2018-08-22T15:14:21.142Z,48.13
2018-08-22T15:16:51.138Z,48.17
2018-08-22T15:19:20.081Z,47.47
2018-08-22T15:21:48.980Z,48.11
2018-08-22T15:24:17.885Z,48.70
2018-08-22T15:26:46.954Z,47.86
2018-08-22T15:29:15.825Z,46.80
2018-08-22T15:31:44.738Z,46.48
2018-08-22T15:34:13.650Z,47.56
2018-08-22T15:36:42.581Z,47.13
2018-08-22T15:39:11.905Z,47.06
2018-08-22T15:41:41.841Z,47.72
2018-08-22T15:44:10.778Z,48.43
2018-08-22T15:46:39.695Z,48.58
2018-08-22T15:49:09.729Z,48.90
2018-08-22T15:51:39.955Z,48.52
2018-08-22T15:54:12.015Z,49.27
2018-08-22T15:56:41.745Z,48.89
2018-08-22T15:59:11.491Z,49.21
2018-08-22T16:01:41.529Z,49.64
2018-08-22T16:04:10.857Z,49.80
2018-08-22T16:06:39.751Z,49.78
2018-08-22T16:09:14.651Z,49.70
2018-08-22T16:11:44.061Z,50.13
2018-08-22T16:14:13.020Z,50.44
2018-08-22T16:16:41.961Z,50.09
2018-08-22T16:19:10.876Z,50.31
2018-08-22T16:21:39.903Z,50.77
2018-08-22T16:24:08.910Z,50.73
2018-08-22T16:26:38.766Z,50.96
2018-08-22T16:29:07.742Z,49.78
2018-08-22T16:31:41.872Z,49.20
2018-08-22T16:34:11.283Z,49.31
2018-08-22T16:36:41.007Z,49.01
2018-08-22T16:39:11.167Z,48.58
2018-08-22T16:41:40.347Z,47.86
2018-08-22T16:44:09.729Z,48.39
2018-08-22T16:46:39.224Z,48.30
2018-08-22T16:49:09.878Z,49.37
2018-08-22T16:51:38.859Z,50.04
2018-08-22T16:54:08.803Z,49.86
2018-08-22T16:56:37.885Z,50.61
2018-08-22T16:59:11.049Z,50.54
2018-08-22T17:01:41.606Z,51.42
2018-08-22T17:04:11.583Z,52.20
2018-08-22T17:06:40.489Z,52.24
2018-08-22T17:09:10.324Z,52.34
2018-08-22T17:11:39.277Z,51.67
2018-08-22T17:14:08.227Z,51.87
2018-08-22T17:16:37.197Z,52.38
2018-08-22T17:19:06.113Z,52.16
2018-08-22T17:21:37.148Z,52.69
2018-08-22T17:24:06.266Z,52.69
2018-08-22T17:26:36.259Z,52.71
2018-08-22T17:29:06.247Z,53.29
2018-08-22T17:31:35.259Z,53.03
2018-08-22T17:34:04.381Z,52.85
2018-08-22T17:36:33.332Z,53.12
2018-08-22T17:39:02.438Z,53.01
2018-08-22T17:41:31.437Z,53.72
2018-08-22T17:44:04.425Z,53.20
2018-08-22T17:46:37.317Z,53.95
2018-08-22T17:49:06.287Z,53.84
2018-08-22T17:51:46.054Z,53.90
2018-08-22T17:54:16.041Z,54.20
2018-08-22T17:56:44.921Z,54.31
2018-08-22T17:59:13.817Z,54.06
2018-08-22T18:01:42.767Z,54.90
2018-08-22T18:04:11.820Z,54.68
2018-08-22T18:06:40.759Z,55.11
2018-08-22T18:09:09.777Z,55.42
2018-08-22T18:11:38.708Z,55.48
2018-08-22T18:14:07.560Z,55.80
2018-08-22T18:16:36.475Z,56.05
2018-08-22T18:19:05.380Z,56.27
2018-08-22T18:21:38.509Z,56.85
2018-08-22T18:24:08.373Z,57.36
2018-08-22T18:26:37.371Z,58.13
2018-08-22T18:29:06.399Z,58.44
2018-08-22T18:31:35.345Z,58.93
2018-08-22T18:34:04.376Z,58.94
2018-08-22T18:36:33.356Z,59.09
2018-08-22T18:39:08.291Z,59.51
2018-08-22T18:41:37.572Z,59.84
2018-08-22T18:44:06.559Z,59.63
2018-08-22T18:46:35.594Z,60.01
2018-08-22T18:49:05.197Z,59.61
2018-08-22T18:51:34.648Z,60.16
2018-08-22T18:54:04.197Z,60.37
2018-08-22T18:56:33.109Z,60.30
2018-08-22T18:59:13.253Z,60.48
2018-08-22T19:01:42.228Z,60.55
2018-08-22T19:04:11.210Z,60.80
2018-08-22T19:06:40.201Z,60.60
2018-08-22T19:09:09.089Z,61.10
2018-08-22T19:11:38.163Z,61.01
2018-08-22T19:14:07.208Z,61.70
2018-08-22T19:16:36.081Z,61.74
2018-08-22T19:19:05.121Z,62.35
2018-08-22T19:21:34.065Z,62.47
2018-08-22T19:24:06.138Z,63.35
2018-08-22T19:26:35.205Z,64.07
2018-08-22T19:29:05.464Z,64.25
2018-08-22T19:31:35.277Z,64.81
2018-08-22T19:34:04.192Z,65.23
2018-08-22T19:36:33.126Z,65.76
2018-08-22T19:39:02.198Z,66.18
2018-08-22T19:41:33.501Z,66.52
2018-08-22T19:44:02.533Z,66.72
2018-08-22T19:46:32.490Z,66.67
2018-08-22T19:49:01.568Z,67.33
2018-08-22T19:51:31.714Z,67.83
2018-08-22T19:54:05.026Z,67.87
2018-08-22T19:56:34.002Z,68.05
2018-08-22T19:59:03.542Z,68.32
2018-08-22T20:01:33.967Z,68.26
2018-08-22T20:04:02.870Z,68.52
2018-08-22T20:06:31.802Z,68.75
2018-08-22T20:09:01.901Z,68.42
2018-08-22T20:11:33.447Z,68.57
2018-08-22T20:14:04.946Z,69.45
2018-08-22T20:16:33.845Z,69.45
2018-08-22T20:19:04.132Z,69.53
2018-08-22T20:21:34.327Z,69.19
2018-08-22T20:24:06.732Z,69.68
2018-08-22T20:26:36.901Z,69.92
2018-08-22T20:29:06.233Z,70.27
2018-08-22T20:31:36.144Z,70.54
2018-08-22T20:34:15.586Z,70.35
2018-08-22T20:36:47.101Z,70.67
2018-08-22T20:39:16.217Z,70.21
2018-08-22T20:41:45.483Z,70.53
2018-08-22T20:44:19.887Z,70.44
2018-08-22T20:46:49.271Z,69.88
2018-08-22T20:49:19.756Z,71.03
2018-08-22T20:51:48.959Z,70.54
2018-08-22T20:54:22.254Z,70.84
2018-08-22T20:56:56.474Z,70.56
2018-08-22T20:59:25.595Z,71.04
2018-08-22T21:02:04.427Z,71.27
2018-08-22T21:04:33.868Z,71.64
2018-08-22T21:07:03.055Z,71.99
2018-08-22T21:09:32.290Z,71.79
2018-08-22T21:12:01.609Z,72.41
2018-08-22T21:14:31.882Z,72.81
2018-08-22T21:17:01.234Z,73.01
2018-08-22T21:19:30.124Z,73.40
2018-08-22T21:21:59.067Z,73.03
2018-08-22T21:24:28.048Z,73.58
2018-08-22T21:26:56.913Z,72.22
2018-08-22T21:29:25.846Z,73.20
2018-08-22T21:31:54.733Z,72.47
2018-08-22T21:34:24.302Z,72.54
2018-08-22T21:36:53.194Z,73.11
2018-08-22T21:39:25.080Z,72.83
2018-08-22T21:41:54.111Z,73.97
2018-08-22T21:44:23.678Z,74.66
2018-08-22T21:46:59.692Z,73.78
2018-08-22T21:49:28.975Z,73.50
2018-08-22T21:52:00.035Z,73.40
2018-08-22T21:54:28.979Z,73.42
2018-08-22T21:56:57.946Z,74.22
2018-08-22T21:59:26.987Z,73.85
2018-08-22T22:02:01.163Z,74.07
2018-08-22T22:04:33.908Z,73.81
2018-08-22T22:07:03.809Z,74.77
2018-08-22T22:09:32.988Z,74.12
2018-08-22T22:12:02.491Z,74.66
2018-08-22T22:14:36.231Z,74.81
2018-08-22T22:17:05.852Z,75.82
2018-08-22T22:19:35.807Z,76.07
2018-08-22T22:22:04.954Z,76.52
2018-08-22T22:24:39.032Z,77.12
2018-08-22T22:27:08.989Z,77.41
2018-08-22T22:29:38.921Z,77.86
2018-08-22T22:32:08.010Z,78.14
2018-08-22T22:34:36.875Z,78.65
2018-08-22T22:37:05.995Z,78.94
2018-08-22T22:39:44.895Z,79.85
2018-08-22T22:42:19.172Z,80.06
2018-08-22T22:44:49.453Z,80.55
2018-08-22T22:47:23.520Z,80.21
2018-08-22T22:49:52.520Z,80.87
2018-08-22T22:52:29.630Z,81.62
2018-08-22T22:54:59.827Z,81.43
2018-08-22T22:57:30.397Z,81.54
2018-08-22T22:59:59.606Z,81.86
2018-08-22T23:02:28.898Z,82.00
2018-08-22T23:04:58.552Z,82.45
2018-08-22T23:07:28.629Z,82.29
2018-08-22T23:09:59.780Z,82.52
2018-08-22T23:12:46.871Z,83.06
2018-08-22T23:15:19.173Z,83.00
2018-08-22T23:17:49.789Z,83.19
2018-08-22T23:20:26.094Z,83.34
2018-08-22T23:22:55.373Z,83.44
2018-08-22T23:25:24.524Z,83.42
2018-08-22T23:27:53.837Z,83.90
2018-08-22T23:30:28.003Z,83.64
2018-08-22T23:32:57.001Z,84.33
2018-08-22T23:35:27.553Z,84.20
2018-08-22T23:37:57.498Z,83.82
2018-08-22T23:40:27.481Z,84.30
2018-08-22T23:42:56.582Z,84.78
2018-08-22T23:45:25.588Z,84.94
2018-08-22T23:47:54.545Z,84.89
2018-08-22T23:50:23.475Z,84.89
2018-08-22T23:52:53.953Z,84.89
2018-08-22T23:55:23.715Z,85.46
2018-08-22T23:57:54.303Z,84.84
